Time;durP1;ratioP1;P1;durP2;ratioP2;P2;SDS_P1;SDS_P2;PMS_P1;PMS_P2;Temp;Humidity;BMP_temperature;BMP_pressure;BME280_temperature;BME280_humidity;BME280_pressure;Samples;Min_cycle;Max_cycle;Signal;HPM_P1;HPM_P2
2023/05/30 00:01:10;;;;;;;;;;;;;;;23.09;41.70;102699.50;5053474;28;19971;-71
2023/05/30 00:03:35;;;;;;;;;;;;;;;23.08;41.86;102702.38;5053967;28;19912;-71
2023/05/30 00:06:01;;;;;;;;;;;;;;;23.07;41.74;102695.25;5058456;28;20388;-71
2023/05/30 00:08:26;;;;;;;;;;;;;;;23.06;41.52;102688.09;5054150;28;19917;-71
2023/05/30 00:10:52;;;;;;;;;;;;;;;23.05;41.81;102705.38;5063467;28;19988;-72
2023/05/30 00:13:19;;;;;;;;;;;;;;;23.04;41.69;102700.97;5047106;28;19921;-70
2023/05/30 00:15:44;;;;;;;;;;;;;;;23.03;41.60;102700.13;5052592;28;19960;-70
2023/05/30 00:18:11;;;;;;;;;;;;;;;23.03;41.79;102696.56;5056135;28;19924;-71
2023/05/30 00:20:36;;;;;;;;;;;;;;;23.02;41.73;102697.53;5053387;28;19921;-71
2023/05/30 00:23:01;;;;;;;;;;;;;;;23.02;41.59;102694.84;5039033;28;19916;-71
2023/05/30 00:25:26;;;;;;;;;;;;;;;23.01;41.86;102693.13;5052297;28;19920;-71
2023/05/30 00:27:52;;;;;;;;;;;;;;;23.00;41.60;102695.00;5054269;28;19968;-71
2023/05/30 00:30:17;;;;;;;;;;;;;;;22.99;41.67;102698.72;5049824;28;19913;-70
2023/05/30 00:32:42;;;;;;;;;;;;;;;22.98;41.83;102698.84;5058007;28;19917;-71
2023/05/30 00:35:07;;;;;;;;;;;;;;;22.97;41.63;102689.88;5052442;28;19917;-71
2023/05/30 00:37:33;;;;;;;;;;;;;;;22.97;41.76;102689.03;5046452;28;19924;-70
2023/05/30 00:39:58;;;;;;;;;;;;;;;22.95;41.63;102689.19;5056973;28;19913;-70
2023/05/30 00:42:25;;;;;;;;;;;;;;;22.94;41.67;102699.19;5043183;28;19917;-70
2023/05/30 00:44:50;;;;;;;;;;;;;;;22.93;41.74;102692.03;5039697;28;19917;-71
2023/05/30 00:47:16;;;;;;;;;;;;;;;22.93;41.46;102702.88;5056995;28;19960;-71
2023/05/30 00:49:41;;;;;;;;;;;;;;;22.93;41.72;102702.03;5051300;28;20000;-70
2023/05/30 00:52:06;;;;;;;;;;;;;;;22.91;41.44;102704.91;5034892;28;20582;-71
2023/05/30 00:54:32;;;;;;;;;;;;;;;22.91;41.62;102699.47;5054786;28;19914;-71
2023/05/30 00:56:57;;;;;;;;;;;;;;;22.91;41.60;102701.34;5052641;28;19935;-71
2023/05/30 00:59:22;;;;;;;;;;;;;;;22.89;41.61;102695.16;5054316;28;19917;-71
2023/05/30 01:01:47;;;;;;;;;;;;;;;22.89;41.49;102700.59;5035995;28;19971;-71
2023/05/30 01:04:12;;;;;;;;;;;;;;;22.89;41.65;102708.72;5054167;28;19935;-70
2023/05/30 01:06:38;;;;;;;;;;;;;;;22.88;41.67;102701.59;5058116;28;19917;-70
2023/05/30 01:09:04;;;;;;;;;;;;;;;22.87;41.38;102708.88;5034849;28;19921;-71
2023/05/30 01:11:48;;;;;;;;;;;;;;;22.87;41.45;102705.34;5023501;28;20281;-70
2023/05/30 01:14:20;;;;;;;;;;;;;;;22.85;41.72;102702.78;5051636;28;19917;-71
2023/05/30 01:17:01;;;;;;;;;;;;;;;22.85;41.57;102701.91;5057255;28;20022;-71
2023/05/30 01:19:32;;;;;;;;;;;;;;;22.84;41.48;102709.19;5037306;28;19917;-71
2023/05/30 01:22:01;;;;;;;;;;;;;;;22.83;41.42;102704.78;5053381;28;19917;-71
2023/05/30 01:24:30;;;;;;;;;;;;;;;22.82;41.18;102705.78;5034432;28;19972;-71
2023/05/30 01:27:06;;;;;;;;;;;;;;;22.81;41.16;102704.09;5037549;28;19939;-70
2023/05/30 01:29:31;;;;;;;;;;;;;;;22.81;41.58;102711.34;5051526;28;19959;-71
2023/05/30 01:31:57;;;;;;;;;;;;;;;22.80;41.45;102702.34;5047391;28;19920;-70
2023/05/30 01:34:22;;;;;;;;;;;;;;;22.79;41.47;102697.94;5056259;28;19913;-71
2023/05/30 01:36:47;;;;;;;;;;;;;;;22.78;41.20;102704.38;5045212;28;19989;-71
2023/05/30 01:39:13;;;;;;;;;;;;;;;22.78;41.42;102711.66;5059073;28;19959;-71
2023/05/30 01:41:57;;;;;;;;;;;;;;;22.77;41.55;102707.22;5050629;28;19917;-71
2023/05/30 01:44:31;;;;;;;;;;;;;;;22.76;41.43;102714.50;5038660;28;19917;-71
2023/05/30 01:47:01;;;;;;;;;;;;;;;22.75;41.27;102710.09;5051381;28;19963;-71
2023/05/30 01:49:29;;;;;;;;;;;;;;;22.74;41.19;102713.81;5031840;28;19917;-71
2023/05/30 01:51:58;;;;;;;;;;;;;;;22.73;41.37;102717.53;5053537;28;19924;-71
2023/05/30 01:54:23;;;;;;;;;;;;;;;22.73;41.30;102722.13;5036892;28;19913;-71
2023/05/30 01:56:51;;;;;;;;;;;;;;;22.72;41.13;102713.09;5046715;28;19955;-71
2023/05/30 01:59:16;;;;;;;;;;;;;;;22.71;41.20;102714.13;5030989;28;19913;-71
2023/05/30 02:01:42;;;;;;;;;;;;;;;22.69;41.13;102719.69;5056135;28;19920;-71
2023/05/30 02:04:07;;;;;;;;;;;;;;;22.69;41.43;102721.56;5052334;28;19919;-71
2023/05/30 02:06:32;;;;;;;;;;;;;;;22.68;41.37;102717.13;5041885;28;19917;-71
2023/05/30 02:08:57;;;;;;;;;;;;;;;22.67;41.26;102721.69;5049851;28;19921;-71
2023/05/30 02:11:22;;;;;;;;;;;;;;;22.67;41.56;102723.56;5048139;28;19923;-70
2023/05/30 02:13:48;;;;;;;;;;;;;;;22.66;41.25;102727.28;5052240;28;19970;-71
2023/05/30 02:16:13;;;;;;;;;;;;;;;22.64;41.28;102724.72;5030580;28;19928;-71
2023/05/30 02:18:40;;;;;;;;;;;;;;;22.64;41.46;102730.16;5034025;28;19935;-70
2023/05/30 02:21:06;;;;;;;;;;;;;;;22.64;41.52;102723.84;5051311;28;19913;-71
2023/05/30 02:23:31;;;;;;;;;;;;;;;22.62;41.46;102724.00;5050965;28;20191;-71
2023/05/30 02:25:57;;;;;;;;;;;;;;;22.62;41.16;102717.72;5050736;28;19913;-71
2023/05/30 02:28:22;;;;;;;;;;;;;;;22.60;41.37;102723.31;5040281;28;19928;-71
2023/05/30 02:30:47;;;;;;;;;;;;;;;22.60;41.23;102731.44;5049349;28;19913;-69
2023/05/30 02:33:12;;;;;;;;;;;;;;;22.60;41.37;102735.97;5060579;28;19913;-71
2023/05/30 02:35:37;;;;;;;;;;;;;;;22.59;41.30;102734.28;5051510;28;19913;-71
2023/05/30 02:38:02;;;;;;;;;;;;;;;22.58;41.20;102736.16;5049544;28;20385;-70
2023/05/30 02:40:28;;;;;;;;;;;;;;;22.57;41.24;102731.72;5054041;28;19932;-72
2023/05/30 02:42:53;;;;;;;;;;;;;;;22.56;41.17;102738.16;5049992;28;20372;-72
2023/05/30 02:45:18;;;;;;;;;;;;;;;22.56;41.39;102732.75;5037531;28;19935;-71
2023/05/30 02:47:43;;;;;;;;;;;;;;;22.55;41.50;102733.72;5049445;28;19913;-71
2023/05/30 02:50:09;;;;;;;;;;;;;;;22.55;41.31;102741.00;5052749;28;19920;-71
2023/05/30 02:52:34;;;;;;;;;;;;;;;22.54;41.28;102744.72;5045388;28;19938;-71
2023/05/30 02:54:59;;;;;;;;;;;;;;;22.53;41.28;102743.88;5055773;28;20003;-71
2023/05/30 02:57:24;;;;;;;;;;;;;;;22.53;41.34;102753.88;5052385;28;20318;-71
2023/05/30 02:59:50;;;;;;;;;;;;;;;22.52;41.42;102752.16;5055749;28;20318;-71
2023/05/30 03:02:16;;;;;;;;;;;;;;;22.52;41.29;102754.88;5054245;28;20381;-70
2023/05/30 03:04:45;;;;;;;;;;;;;;;22.51;41.08;102756.72;5041384;28;19941;-71
2023/05/30 03:07:17;;;;;;;;;;;;;;;22.50;41.48;102751.44;5055080;28;19921;-71
2023/05/30 03:09:42;;;;;;;;;;;;;;;22.49;41.25;102752.47;5055773;28;19917;-71
2023/05/30 03:12:07;;;;;;;;;;;;;;;22.49;41.53;102747.03;5031013;28;19936;-71
2023/05/30 03:14:32;;;;;;;;;;;;;;;22.48;41.07;102753.47;5049932;28;20274;-71
2023/05/30 03:16:58;;;;;;;;;;;;;;;22.46;41.37;102754.44;5051843;28;19921;-71
2023/05/30 03:19:23;;;;;;;;;;;;;;;22.46;41.31;102754.44;5038478;28;19913;-71
2023/05/30 03:21:49;;;;;;;;;;;;;;;22.45;41.24;102755.44;5051231;28;19940;-72
2023/05/30 03:24:15;;;;;;;;;;;;;;;22.45;41.36;102760.03;5050758;28;19913;-72
2023/05/30 03:26:40;;;;;;;;;;;;;;;22.44;41.46;102750.19;5036491;28;19929;-71
2023/05/30 03:29:07;;;;;;;;;;;;;;;22.44;41.39;102752.91;5044076;28;20290;-71
2023/05/30 03:31:33;;;;;;;;;;;;;;;22.43;41.33;102751.19;5050234;28;19913;-71
2023/05/30 03:33:59;;;;;;;;;;;;;;;22.02;41.20;102690.09;5052891;28;19967;-71
2023/05/30 03:36:25;;;;;;;;;;;;;;;22.42;41.28;102758.44;5048628;28;19913;-72
2023/05/30 03:38:51;;;;;;;;;;;;;;;22.40;41.51;102760.47;5049694;28;19909;-72
2023/05/30 03:41:16;;;;;;;;;;;;;;;22.41;41.06;102761.31;5051851;28;19913;-71
2023/05/30 03:43:41;;;;;;;;;;;;;;;22.39;41.25;102761.47;5050085;28;19913;-71
2023/05/30 03:46:06;;;;;;;;;;;;;;;22.37;41.32;102758.03;5048888;28;19919;-71
2023/05/30 03:48:31;;;;;;;;;;;;;;;22.37;41.24;102758.03;5049620;28;19917;-72
2023/05/30 03:50:57;;;;;;;;;;;;;;;22.37;41.46;102765.31;5052295;28;19963;-72
2023/05/30 03:53:22;;;;;;;;;;;;;;;22.36;41.25;102772.59;5049137;28;19917;-71
2023/05/30 03:55:47;;;;;;;;;;;;;;;22.35;41.09;102776.31;5056798;28;20256;-71
2023/05/30 03:58:13;;;;;;;;;;;;;;;22.35;41.05;102775.47;5048860;28;19919;-71
2023/05/30 04:00:38;;;;;;;;;;;;;;;22.34;41.38;102769.16;5042001;28;19913;-71
2023/05/30 04:03:03;;;;;;;;;;;;;;;22.33;41.44;102764.75;5051547;28;19917;-71
2023/05/30 04:05:28;;;;;;;;;;;;;;;22.33;41.04;102774.75;5048577;28;19917;-71
2023/05/30 04:07:53;;;;;;;;;;;;;;;22.32;41.05;102770.34;5036765;28;19913;-71
2023/05/30 04:10:19;;;;;;;;;;;;;;;22.32;41.27;102776.59;5049227;28;19924;-71
2023/05/30 04:12:44;;;;;;;;;;;;;;;22.32;41.45;102773.03;5047679;28;19971;-72
2023/05/30 04:15:10;;;;;;;;;;;;;;;22.32;41.29;102781.16;5049259;28;19921;-72
2023/05/30 04:17:35;;;;;;;;;;;;;;;22.30;41.33;102775.03;5052961;28;19921;-71
2023/05/30 04:20:00;;;;;;;;;;;;;;;22.30;41.43;102777.75;5031633;28;19913;-71
2023/05/30 04:22:25;;;;;;;;;;;;;;;22.29;41.19;102778.75;5052909;28;20626;-71
2023/05/30 04:24:51;;;;;;;;;;;;;;;22.28;41.44;102772.47;5051693;28;19913;-72
2023/05/30 04:27:19;;;;;;;;;;;;;;;22.28;41.45;102771.63;5044852;28;21373;-71
2023/05/30 04:29:46;;;;;;;;;;;;;;;22.27;41.04;102767.22;5052174;28;20290;-70
2023/05/30 04:32:11;;;;;;;;;;;;;;;22.25;41.23;102770.03;5028821;28;19920;-71
2023/05/30 04:34:38;;;;;;;;;;;;;;;22.26;41.10;102774.50;5034352;28;19913;-71
2023/05/30 04:37:04;;;;;;;;;;;;;;;22.25;41.16;102772.75;5048291;28;20293;-71
2023/05/30 04:39:29;;;;;;;;;;;;;;;22.25;41.16;102775.47;5050586;28;19919;-71
2023/05/30 04:41:55;;;;;;;;;;;;;;;22.24;41.06;102779.19;5052985;28;19948;-71
2023/05/30 04:44:20;;;;;;;;;;;;;;;22.24;41.17;102781.91;5054627;28;19913;-71
2023/05/30 04:46:46;;;;;;;;;;;;;;;22.23;41.29;102780.19;5048895;28;19920;-70
2023/05/30 04:49:15;;;;;;;;;;;;;;;22.23;41.13;102780.19;5054645;28;19927;-71
2023/05/30 04:51:40;;;;;;;;;;;;;;;22.23;41.06;102772.06;5037975;28;20000;-72
2023/05/30 04:54:05;;;;;;;;;;;;;;;22.23;41.12;102777.47;5056186;28;19984;-71
2023/05/30 04:56:31;;;;;;;;;;;;;;;22.22;41.05;102764.94;5059048;28;19917;-71
2023/05/30 04:58:56;;;;;;;;;;;;;;;22.21;41.15;102764.06;5052425;28;20004;-71
2023/05/30 05:01:23;;;;;;;;;;;;;;;22.21;41.24;102774.03;5038511;28;19913;-71
2023/05/30 05:03:49;;;;;;;;;;;;;;;22.21;41.13;102772.19;5052667;28;19913;-70
2023/05/30 05:06:14;;;;;;;;;;;;;;;22.21;41.10;102774.03;5048353;28;19982;-71
2023/05/30 05:08:39;;;;;;;;;;;;;;;22.20;41.16;102772.34;5052653;28;19951;-71
2023/05/30 05:11:05;;;;;;;;;;;;;;;22.20;40.98;102765.06;5052824;28;19940;-71
2023/05/30 05:13:30;;;;;;;;;;;;;;;22.19;41.14;102768.78;5033392;28;19917;-71
2023/05/30 05:15:56;;;;;;;;;;;;;;;22.19;41.26;102770.63;5052864;28;19939;-71
2023/05/30 05:18:21;;;;;;;;;;;;;;;22.19;41.16;102770.63;5044170;28;19928;-71
2023/05/30 05:20:46;;;;;;;;;;;;;;;22.19;41.33;102770.63;5052972;28;19917;-71
2023/05/30 05:23:11;;;;;;;;;;;;;;;22.18;41.14;102767.09;5058154;28;19916;-72
2023/05/30 05:25:37;;;;;;;;;;;;;;;22.19;41.21;102773.34;5053050;28;19927;-71
2023/05/30 05:28:02;;;;;;;;;;;;;;;22.19;40.94;102776.06;5043653;28;19917;-71
2023/05/30 05:30:27;;;;;;;;;;;;;;;22.18;41.02;102777.91;5054054;28;19917;-71
2023/05/30 05:32:52;;;;;;;;;;;;;;;22.18;41.12;102790.63;5051711;28;19936;-71
2023/05/30 05:35:18;;;;;;;;;;;;;;;22.17;41.06;102789.75;5052784;28;20012;-71
2023/05/30 05:37:43;;;;;;;;;;;;;;;22.18;41.02;102782.50;5038841;28;19936;-70
2023/05/30 05:40:08;;;;;;;;;;;;;;;22.18;41.19;102782.50;5039726;28;19924;-70
2023/05/30 05:42:34;;;;;;;;;;;;;;;22.17;41.13;102778.03;5049317;28;20207;-70
2023/05/30 05:44:59;;;;;;;;;;;;;;;22.17;41.04;102770.81;5055506;28;19920;-71
2023/05/30 05:47:25;;;;;;;;;;;;;;;22.16;41.07;102777.19;5049898;28;19976;-71
2023/05/30 05:49:51;;;;;;;;;;;;;;;22.17;41.20;102775.34;5060980;28;20012;-71
2023/05/30 05:52:16;;;;;;;;;;;;;;;22.17;40.95;102781.63;5035708;28;19913;-71
2023/05/30 05:54:41;;;;;;;;;;;;;;;22.16;40.88;102782.59;5044160;28;19946;-70
2023/05/30 05:57:06;;;;;;;;;;;;;;;22.16;40.87;102779.91;5038700;28;19917;-70
2023/05/30 05:59:32;;;;;;;;;;;;;;;22.16;40.95;102779.06;5051832;28;19917;-70
2023/05/30 06:01:57;;;;;;;;;;;;;;;22.16;41.09;102784.47;5051333;28;19917;-70
2023/05/30 06:04:22;;;;;;;;;;;;;;;22.16;41.18;102781.75;5049974;28;19913;-71
2023/05/30 06:06:47;;;;;;;;;;;;;;;22.15;41.20;102780.91;5053191;28;19913;-71
2023/05/30 06:09:12;;;;;;;;;;;;;;;22.16;41.27;102784.47;5051207;28;19928;-71
2023/05/30 06:11:38;;;;;;;;;;;;;;;22.16;41.07;102784.47;5055230;28;20448;-70
2023/05/30 06:14:03;;;;;;;;;;;;;;;22.15;40.91;102783.63;5025433;28;19921;-70
2023/05/30 06:16:28;;;;;;;;;;;;;;;22.16;41.06;102776.34;5056513;28;19921;-71
2023/05/30 06:18:53;;;;;;;;;;;;;;;22.15;40.96;102786.31;5056540;28;20655;-70
2023/05/30 06:21:18;;;;;;;;;;;;;;;22.15;40.96;102780.91;5046482;28;19917;-70
2023/05/30 06:23:43;;;;;;;;;;;;;;;22.16;40.95;102789.88;5042410;28;19917;-71
2023/05/30 06:26:09;;;;;;;;;;;;;;;22.17;41.11;102791.59;5050385;28;19967;-71
2023/05/30 06:28:35;;;;;;;;;;;;;;;22.16;41.15;102789.88;5034429;28;19917;-71
2023/05/30 06:31:00;;;;;;;;;;;;;;;22.16;40.95;102787.19;5034564;28;19965;-71
2023/05/30 06:33:26;;;;;;;;;;;;;;;22.16;41.16;102785.31;5034208;28;19913;-71
2023/05/30 06:35:51;;;;;;;;;;;;;;;22.16;40.96;102785.31;5050384;28;20310;-71
2023/05/30 06:38:16;;;;;;;;;;;;;;;22.16;41.01;102779.06;5052047;28;19917;-71
2023/05/30 06:40:42;;;;;;;;;;;;;;;22.16;40.96;102781.75;5051471;28;19976;-71
2023/05/30 06:43:07;;;;;;;;;;;;;;;22.15;40.95;102789.03;5044674;28;19913;-71
2023/05/30 06:45:32;;;;;;;;;;;;;;;22.15;41.28;102780.06;5057470;28;19914;-71
2023/05/30 06:47:57;;;;;;;;;;;;;;;22.14;41.19;102781.91;5027973;28;19913;-71
2023/05/30 06:50:23;;;;;;;;;;;;;;;22.15;41.26;102785.47;5056028;28;19955;-70
2023/05/30 06:52:48;;;;;;;;;;;;;;;22.15;41.01;102785.47;5053307;28;19920;-70
2023/05/30 06:55:14;;;;;;;;;;;;;;;22.15;40.89;102783.63;5050134;28;19917;-70
2023/05/30 06:57:39;;;;;;;;;;;;;;;22.15;41.01;102780.06;5053296;28;19919;-71
2023/05/30 07:00:05;;;;;;;;;;;;;;;22.14;40.96;102784.63;5051201;28;20004;-71
2023/05/30 07:02:30;;;;;;;;;;;;;;;22.14;41.12;102779.22;5050499;28;19916;-71
2023/05/30 07:04:55;;;;;;;;;;;;;;;22.15;41.20;102786.31;5047722;28;19913;-70
2023/05/30 07:07:20;;;;;;;;;;;;;;;22.15;41.38;102782.78;5053012;28;19984;-70
2023/05/30 07:09:46;;;;;;;;;;;;;;;22.15;41.22;102790.91;5032183;28;19917;-70
2023/05/30 07:12:11;;;;;;;;;;;;;;;22.14;41.32;102790.03;5055446;28;20011;-71
2023/05/30 07:14:36;;;;;;;;;;;;;;;22.14;41.07;102790.03;5043709;28;20324;-70
2023/05/30 07:17:04;;;;;;;;;;;;;;;22.12;41.46;102791.16;5057411;28;19925;-71
2023/05/30 07:19:30;;;;;;;;;;;;;;;22.13;41.29;102787.47;5036235;28;19913;-71
2023/05/30 07:21:55;;;;;;;;;;;;;;;22.13;41.23;102791.06;5042849;28;19913;-71
2023/05/30 07:24:21;;;;;;;;;;;;;;;22.12;41.38;102793.84;5042365;28;19984;-71
2023/05/30 07:26:46;;;;;;;;;;;;;;;22.11;41.14;102790.28;5020768;28;19936;-71
2023/05/30 07:29:12;;;;;;;;;;;;;;;22.11;41.43;102787.59;5031418;28;19917;-70
2023/05/30 07:31:37;;;;;;;;;;;;;;;22.12;41.21;102792.03;5045954;28;19919;-71
2023/05/30 07:34:02;;;;;;;;;;;;;;;22.11;41.12;102790.28;5052549;28;19972;-71
2023/05/30 07:36:27;;;;;;;;;;;;;;;22.11;41.33;102795.72;5029059;28;19913;-71
2023/05/30 07:38:52;;;;;;;;;;;;;;;22.11;41.20;102792.16;5036260;28;19914;-70
2023/05/30 07:41:17;;;;;;;;;;;;;;;22.11;41.29;102800.28;5033921;28;19964;-71
2023/05/30 07:43:43;;;;;;;;;;;;;;;22.11;41.28;102792.16;5035102;28;19913;-71
2023/05/30 07:46:08;;;;;;;;;;;;;;;22.11;41.31;102798.41;5056500;28;19919;-71
2023/05/30 07:48:33;;;;;;;;;;;;;;;22.12;41.13;102796.56;5050990;28;19968;-71
2023/05/30 07:50:58;;;;;;;;;;;;;;;22.11;41.45;102794.84;5055592;28;19917;-71
2023/05/30 07:53:24;;;;;;;;;;;;;;;22.11;41.30;102798.41;5051885;28;20294;-70
2023/05/30 07:55:49;;;;;;;;;;;;;;;22.11;41.18;102798.41;5044722;28;19917;-71
2023/05/30 07:58:14;;;;;;;;;;;;;;;22.11;41.50;102795.72;5052159;28;19935;-71
2023/05/30 08:00:39;;;;;;;;;;;;;;;22.12;41.23;102797.44;5050218;28;19917;-70
2023/05/30 08:03:05;;;;;;;;;;;;;;;22.13;41.14;102799.19;5047534;28;19914;-70
2023/05/30 08:05:30;;;;;;;;;;;;;;;22.12;41.23;102797.44;5049851;28;19916;-71
2023/05/30 08:07:56;;;;;;;;;;;;;;;22.13;41.34;102795.59;5038600;28;20361;-71
2023/05/30 08:10:21;;;;;;;;;;;;;;;22.13;41.16;102798.28;5049867;28;19912;-71
2023/05/30 08:12:46;;;;;;;;;;;;;;;22.13;41.48;102792.88;5039999;28;19913;-71
2023/05/30 08:15:11;;;;;;;;;;;;;;;22.13;41.40;102798.28;5052189;28;19949;-71
2023/05/30 08:17:36;;;;;;;;;;;;;;;22.12;41.51;102789.31;5055740;28;20000;-71
2023/05/30 08:20:03;;;;;;;;;;;;;;;22.12;41.29;102788.44;5038388;28;19920;-71
2023/05/30 08:22:28;;;;;;;;;;;;;;;22.12;41.57;102783.00;5047720;28;19940;-70
2023/05/30 08:24:54;;;;;;;;;;;;;;;22.12;41.21;102781.19;5048994;28;19913;-70
2023/05/30 08:27:20;;;;;;;;;;;;;;;22.11;41.25;102784.88;5036384;28;20004;-71
2023/05/30 08:29:48;;;;;;;;;;;;;;;22.11;41.36;102790.28;5023593;28;20322;-71
2023/05/30 08:32:13;;;;;;;;;;;;;;;22.10;41.68;102794.00;5052761;28;19920;-71
2023/05/30 08:34:39;;;;;;;;;;;;;;;22.11;41.54;102786.72;5059085;28;19924;-71
2023/05/30 08:37:05;;;;;;;;;;;;;;;22.10;41.44;102787.75;5051334;28;19917;-71
2023/05/30 08:39:33;;;;;;;;;;;;;;;22.11;41.58;102789.44;5059830;28;19959;-71
2023/05/30 08:41:58;;;;;;;;;;;;;;;22.10;41.38;102780.47;5055512;28;19914;-71
2023/05/30 08:44:23;;;;;;;;;;;;;;;22.11;41.29;102789.44;5038035;28;19920;-71
2023/05/30 08:46:48;;;;;;;;;;;;;;;22.12;41.42;102786.59;5057851;28;19912;-71
2023/05/30 08:49:18;;;;;;;;;;;;;;;22.11;41.35;102781.31;5044409;28;19968;-71
2023/05/30 08:51:43;;;;;;;;;;;;;;;22.11;41.53;102776.75;5056384;28;20362;-71
2023/05/30 08:54:29;;;;;;;;;;;;;;;22.12;41.73;102781.19;5040093;28;19913;-71
2023/05/30 08:56:58;;;;;;;;;;;;;;;22.12;41.54;102770.34;5050839;28;20007;-71
2023/05/30 08:59:25;;;;;;;;;;;;;;;22.13;41.60;102773.91;5034575;28;19917;-71
2023/05/30 09:01:50;;;;;;;;;;;;;;;22.13;41.59;102769.38;5055061;28;20325;-71
2023/05/30 09:04:15;;;;;;;;;;;;;;;22.13;41.50;102766.66;5053005;28;19913;-71
2023/05/30 09:06:40;;;;;;;;;;;;;;;22.13;41.36;102766.66;5060329;28;20390;-70
2023/05/30 09:09:08;;;;;;;;;;;;;;;22.14;41.69;102752.13;5045544;28;19917;-71
2023/05/30 09:11:33;;;;;;;;;;;;;;;22.14;41.83;102760.25;5046613;28;20012;-71
2023/05/30 09:13:59;;;;;;;;;;;;;;;22.15;41.72;102753.81;5058743;28;19914;-71
2023/05/30 09:16:24;;;;;;;;;;;;;;;22.15;41.96;102750.25;5034832;28;20031;-71
2023/05/30 09:18:49;;;;;;;;;;;;;;;22.15;41.65;102753.81;5035828;28;19989;-71
2023/05/30 09:21:15;;;;;;;;;;;;;;;22.15;41.72;102758.38;5034132;28;19955;-70
2023/05/30 09:23:43;;;;;;;;;;;;;;;22.15;41.60;102756.53;5047867;28;19917;-71
2023/05/30 09:26:13;;;;;;;;;;;;;;;22.15;41.95;102745.69;5036702;28;19917;-71
2023/05/30 09:28:38;;;;;;;;;;;;;;;22.15;41.57;102748.41;5036960;28;19928;-71
2023/05/30 09:31:04;;;;;;;;;;;;;;;22.16;42.01;102755.53;5044913;28;19917;-71
2023/05/30 09:33:41;;;;;;;;;;;;;;;22.16;41.69;102750.09;5047057;28;19923;-71
2023/05/30 09:36:07;;;;;;;;;;;;;;;22.16;41.58;102743.84;5056581;28;19917;-70
2023/05/30 09:38:32;;;;;;;;;;;;;;;22.16;41.77;102739.25;5059981;28;20333;-70
2023/05/30 09:41:04;;;;;;;;;;;;;;;22.17;41.98;102740.13;5041380;28;19917;-71
2023/05/30 09:43:34;;;;;;;;;;;;;;;22.17;41.92;102745.53;5051996;28;19913;-71
2023/05/30 09:46:03;;;;;;;;;;;;;;;22.17;41.71;102741.00;5035849;28;19913;-70
2023/05/30 09:48:28;;;;;;;;;;;;;;;22.17;41.71;102746.41;5033797;28;19917;-71
2023/05/30 09:50:53;;;;;;;;;;;;;;;22.18;42.00;102749.97;5057930;28;19967;-70
2023/05/30 09:53:19;;;;;;;;;;;;;;;22.19;42.12;102749.81;5035170;28;19917;-70
2023/05/30 09:55:44;;;;;;;;;;;;;;;22.19;42.10;102757.94;5052584;28;19913;-71
2023/05/30 09:58:17;;;;;;;;;;;;;;;22.20;42.16;102753.38;5049992;28;19921;-71
2023/05/30 10:00:47;;;;;;;;;;;;;;;22.20;42.18;102751.53;5053773;28;19923;-71
2023/05/30 10:03:12;;;;;;;;;;;;;;;22.20;41.98;102751.53;5036818;28;20402;-71
2023/05/30 10:05:38;;;;;;;;;;;;;;;22.21;42.45;102747.81;5051164;28;19920;-71
2023/05/30 10:08:03;;;;;;;;;;;;;;;22.23;42.35;102744.13;5045219;28;19955;-71
2023/05/30 10:10:28;;;;;;;;;;;;;;;22.23;42.23;102749.53;5033192;28;19928;-71
2023/05/30 10:12:54;;;;;;;;;;;;;;;22.24;42.46;102745.81;5031328;28;19917;-71
2023/05/30 10:15:20;;;;;;;;;;;;;;;22.24;42.20;102748.53;5034831;28;19913;-70
2023/05/30 10:18:04;;;;;;;;;;;;;;;22.25;42.20;102751.06;5044969;28;19927;-71
2023/05/30 10:20:29;;;;;;;;;;;;;;;22.27;42.25;102748.25;5051933;28;19913;-71
2023/05/30 10:22:54;;;;;;;;;;;;;;;22.27;42.09;102754.50;5051764;28;19913;-71
2023/05/30 10:25:20;;;;;;;;;;;;;;;22.27;42.28;102751.81;5049997;28;19917;-71
2023/05/30 10:27:49;;;;;;;;;;;;;;;22.29;42.24;102746.22;5034264;28;19987;-71
2023/05/30 10:30:15;;;;;;;;;;;;;;;22.30;42.25;102754.22;5035935;28;19948;-71
2023/05/30 10:32:42;;;;;;;;;;;;;;;22.32;42.37;102754.06;5046753;28;19920;-71
2023/05/30 10:35:08;;;;;;;;;;;;;;;22.32;42.38;102744.09;5039926;28;19914;-71
2023/05/30 10:37:33;;;;;;;;;;;;;;;22.33;42.54;102759.34;5033229;28;20000;-71
2023/05/30 10:40:05;;;;;;;;;;;;;;;22.34;42.58;102757.47;5053047;28;19917;-70
2023/05/30 10:42:46;;;;;;;;;;;;;;;22.36;42.71;102750.91;5044503;28;19916;-70
2023/05/30 10:45:15;;;;;;;;;;;;;;;22.38;42.60;102757.03;5033660;28;19913;-71
2023/05/30 10:47:57;;;;;;;;;;;;;;;22.40;42.69;102759.63;5035554;28;19928;-71
2023/05/30 10:50:37;;;;;;;;;;;;;;;22.41;42.66;102745.91;5037392;28;19924;-71
2023/05/30 10:53:10;;;;;;;;;;;;;;;22.42;42.54;102747.59;5045796;28;19948;-71
2023/05/30 10:55:36;;;;;;;;;;;;;;;22.43;42.57;102745.78;5036648;28;20378;-70
2023/05/30 10:58:01;;;;;;;;;;;;;;;22.44;42.61;102744.78;5033952;28;19913;-71
2023/05/30 11:00:27;;;;;;;;;;;;;;;22.44;42.76;102736.63;5038821;28;19936;-71
2023/05/30 11:02:52;;;;;;;;;;;;;;;22.44;42.76;102747.47;5039997;28;19920;-71
2023/05/30 11:05:19;;;;;;;;;;;;;;;22.45;42.59;102743.75;5043889;28;19979;-70
2023/05/30 11:07:44;;;;;;;;;;;;;;;22.46;42.65;102742.75;5045307;28;19939;-71
2023/05/30 11:10:14;;;;;;;;;;;;;;;22.45;42.73;102747.31;5051546;28;19921;-71
2023/05/30 11:12:48;;;;;;;;;;;;;;;22.47;42.87;102749.88;5056332;28;19983;-71
2023/05/30 11:15:14;;;;;;;;;;;;;;;22.48;42.92;102748.03;5037612;28;20357;-71
2023/05/30 11:17:39;;;;;;;;;;;;;;;22.49;42.67;102758.72;5045299;28;19925;-72
2023/05/30 11:20:09;;;;;;;;;;;;;;;22.51;42.85;102745.00;5033040;28;20384;-71
2023/05/30 11:22:36;;;;;;;;;;;;;;;22.51;42.64;102754.00;5036177;28;19916;-71
2023/05/30 11:25:17;;;;;;;;;;;;;;;22.53;42.59;102743.03;5051792;28;20011;-71
2023/05/30 11:28:02;;;;;;;;;;;;;;;22.52;42.57;102752.16;5046482;28;19913;-71
2023/05/30 11:30:27;;;;;;;;;;;;;;;22.53;42.77;102748.44;5053963;28;19921;-71
2023/05/30 11:32:53;;;;;;;;;;;;;;;22.53;42.93;102752.00;5039929;28;19913;-71
2023/05/30 11:35:19;;;;;;;;;;;;;;;22.53;42.81;102757.44;5056043;28;19987;-71
2023/05/30 11:37:44;;;;;;;;;;;;;;;22.53;42.94;102757.44;5050629;28;19913;-71
2023/05/30 11:40:13;;;;;;;;;;;;;;;22.53;43.01;102749.28;5046124;28;19923;-71
2023/05/30 11:42:38;;;;;;;;;;;;;;;22.54;43.06;102744.72;5052746;28;20046;-71
2023/05/30 11:45:03;;;;;;;;;;;;;;;22.54;42.95;102745.56;5049981;28;19913;-71
2023/05/30 11:47:28;;;;;;;;;;;;;;;22.53;42.93;102751.16;5031876;28;20015;-71
2023/05/30 11:49:55;;;;;;;;;;;;;;;22.54;43.04;102744.72;5050112;28;19980;-71
2023/05/30 11:52:21;;;;;;;;;;;;;;;22.54;43.02;102752.84;5050368;28;19913;-71
2023/05/30 11:54:46;;;;;;;;;;;;;;;22.53;43.02;102752.00;5049038;28;19981;-71
2023/05/30 11:57:16;;;;;;;;;;;;;;;22.53;43.23;102741.16;5040279;28;19913;-71
2023/05/30 11:59:42;;;;;;;;;;;;;;;22.53;43.09;102741.16;5049525;28;19913;-70
2023/05/30 12:02:07;;;;;;;;;;;;;;;22.53;43.18;102734.91;5060701;28;19972;-71
2023/05/30 12:04:33;;;;;;;;;;;;;;;22.53;42.99;102737.59;5052178;28;19951;-71
2023/05/30 12:07:02;;;;;;;;;;;;;;;22.53;42.92;102734.91;5048465;28;19920;-71
2023/05/30 12:09:27;;;;;;;;;;;;;;;22.52;42.95;102736.75;5052834;28;19917;-71
2023/05/30 12:11:54;;;;;;;;;;;;;;;22.53;42.93;102733.03;5049529;28;20380;-71
2023/05/30 12:14:19;;;;;;;;;;;;;;;22.53;43.08;102732.19;5032058;28;20398;-71
2023/05/30 12:16:44;;;;;;;;;;;;;;;22.53;43.14;102732.19;5047111;28;19931;-71
2023/05/30 12:19:10;;;;;;;;;;;;;;;22.53;42.88;102726.75;5052038;28;19913;-71
2023/05/30 12:21:36;;;;;;;;;;;;;;;22.52;42.99;102728.63;5048693;28;19921;-70
2023/05/30 12:24:09;;;;;;;;;;;;;;;22.52;43.21;102725.91;5045062;28;19936;-71
2023/05/30 12:26:34;;;;;;;;;;;;;;;22.52;43.06;102731.34;5042714;28;20291;-70
2023/05/30 12:29:05;;;;;;;;;;;;;;;22.53;42.90;102726.75;5041356;28;19921;-71
2023/05/30 12:31:30;;;;;;;;;;;;;;;22.53;43.07;102721.34;5052876;28;19998;-71